sensor_id;sensor_type;location;lat;lon;timestamp;P1;durP1;ratioP1;P2;durP2;ratioP2
48578;SDS011;34357;51.948;6.132;2023-05-10T00:00:51;24.27;;;17.80;;
48578;SDS011;34357;51.948;6.132;2023-05-10T00:03:16;28.67;;;18.98;;
48578;SDS011;34357;51.948;6.132;2023-05-10T00:05:42;26.83;;;18.50;;
48578;SDS011;34357;51.948;6.132;2023-05-10T00:08:08;30.35;;;18.70;;
48578;SDS011;34357;51.948;6.132;2023-05-10T00:10:34;33.85;;;19.88;;
48578;SDS011;34357;51.948;6.132;2023-05-10T00:13:00;34.78;;;20.30;;
48578;SDS011;34357;51.948;6.132;2023-05-10T00:15:25;35.28;;;20.08;;
48578;SDS011;34357;51.948;6.132;2023-05-10T00:17:51;32.33;;;21.23;;
48578;SDS011;34357;51.948;6.132;2023-05-10T00:20:17;33.80;;;21.27;;
48578;SDS011;34357;51.948;6.132;2023-05-10T00:22:42;35.22;;;21.10;;
48578;SDS011;34357;51.948;6.132;2023-05-10T00:25:08;39.45;;;23.52;;
48578;SDS011;34357;51.948;6.132;2023-05-10T00:27:35;43.15;;;25.55;;
48578;SDS011;34357;51.948;6.132;2023-05-10T00:30:01;48.40;;;26.38;;
48578;SDS011;34357;51.948;6.132;2023-05-10T00:32:27;58.70;;;30.20;;
48578;SDS011;34357;51.948;6.132;2023-05-10T00:34:54;57.17;;;30.38;;
48578;SDS011;34357;51.948;6.132;2023-05-10T00:37:20;66.43;;;33.00;;
48578;SDS011;34357;51.948;6.132;2023-05-10T00:39:45;73.38;;;34.75;;
48578;SDS011;34357;51.948;6.132;2023-05-10T00:42:11;82.72;;;40.65;;
48578;SDS011;34357;51.948;6.132;2023-05-10T00:44:37;88.32;;;40.58;;
48578;SDS011;34357;51.948;6.132;2023-05-10T00:47:04;95.78;;;42.72;;
48578;SDS011;34357;51.948;6.132;2023-05-10T00:49:30;89.50;;;40.78;;
48578;SDS011;34357;51.948;6.132;2023-05-10T00:51:56;108.55;;;46.30;;
48578;SDS011;34357;51.948;6.132;2023-05-10T00:54:22;112.85;;;46.35;;
48578;SDS011;34357;51.948;6.132;2023-05-10T00:56:47;102.72;;;42.33;;
48578;SDS011;34357;51.948;6.132;2023-05-10T00:59:17;115.13;;;47.13;;
48578;SDS011;34357;51.948;6.132;2023-05-10T01:01:44;127.75;;;51.78;;
48578;SDS011;34357;51.948;6.132;2023-05-10T01:04:14;123.35;;;51.95;;
48578;SDS011;34357;51.948;6.132;2023-05-10T01:06:41;143.65;;;56.58;;
48578;SDS011;34357;51.948;6.132;2023-05-10T01:09:07;144.15;;;54.72;;
48578;SDS011;34357;51.948;6.132;2023-05-10T01:11:33;160.02;;;59.05;;
48578;SDS011;34357;51.948;6.132;2023-05-10T01:14:01;161.80;;;60.75;;
48578;SDS011;34357;51.948;6.132;2023-05-10T01:16:28;163.50;;;61.00;;
48578;SDS011;34357;51.948;6.132;2023-05-10T01:18:56;165.80;;;59.33;;
48578;SDS011;34357;51.948;6.132;2023-05-10T01:21:38;163.88;;;57.58;;
48578;SDS011;34357;51.948;6.132;2023-05-10T01:30:20;161.45;;;60.65;;
48578;SDS011;34357;51.948;6.132;2023-05-10T01:46:54;184.75;;;67.85;;
48578;SDS011;34357;51.948;6.132;2023-05-10T01:49:26;210.73;;;71.63;;
48578;SDS011;34357;51.948;6.132;2023-05-10T01:51:56;188.65;;;66.28;;
48578;SDS011;34357;51.948;6.132;2023-05-10T01:54:25;201.02;;;69.65;;
48578;SDS011;34357;51.948;6.132;2023-05-10T01:56:59;185.27;;;65.85;;
48578;SDS011;34357;51.948;6.132;2023-05-10T01:59:30;188.55;;;69.07;;
48578;SDS011;34357;51.948;6.132;2023-05-10T02:02:05;190.82;;;69.45;;
48578;SDS011;34357;51.948;6.132;2023-05-10T02:04:33;202.77;;;70.95;;
48578;SDS011;34357;51.948;6.132;2023-05-10T02:07:03;170.07;;;67.72;;
48578;SDS011;34357;51.948;6.132;2023-05-10T02:09:29;183.75;;;68.60;;
48578;SDS011;34357;51.948;6.132;2023-05-10T02:11:59;203.45;;;71.32;;
48578;SDS011;34357;51.948;6.132;2023-05-10T02:14:28;193.95;;;69.68;;
48578;SDS011;34357;51.948;6.132;2023-05-10T02:16:57;187.05;;;69.75;;
48578;SDS011;34357;51.948;6.132;2023-05-10T02:19:26;194.80;;;70.95;;
48578;SDS011;34357;51.948;6.132;2023-05-10T02:21:55;191.50;;;69.60;;
48578;SDS011;34357;51.948;6.132;2023-05-10T02:24:22;191.30;;;67.72;;
48578;SDS011;34357;51.948;6.132;2023-05-10T02:26:49;167.75;;;65.15;;
48578;SDS011;34357;51.948;6.132;2023-05-10T02:29:18;175.38;;;67.68;;
48578;SDS011;34357;51.948;6.132;2023-05-10T02:31:46;165.90;;;63.70;;
48578;SDS011;34357;51.948;6.132;2023-05-10T02:34:13;143.80;;;59.65;;
48578;SDS011;34357;51.948;6.132;2023-05-10T02:36:39;154.32;;;62.53;;
48578;SDS011;34357;51.948;6.132;2023-05-10T02:39:06;161.80;;;64.35;;
48578;SDS011;34357;51.948;6.132;2023-05-10T02:41:37;142.52;;;58.10;;
48578;SDS011;34357;51.948;6.132;2023-05-10T02:44:07;160.80;;;62.08;;
48578;SDS011;34357;51.948;6.132;2023-05-10T02:46:34;147.48;;;57.00;;
48578;SDS011;34357;51.948;6.132;2023-05-10T02:49:01;142.70;;;55.95;;
48578;SDS011;34357;51.948;6.132;2023-05-10T02:51:28;144.50;;;54.90;;
48578;SDS011;34357;51.948;6.132;2023-05-10T02:53:56;162.88;;;59.65;;
48578;SDS011;34357;51.948;6.132;2023-05-10T02:56:28;142.32;;;56.47;;
48578;SDS011;34357;51.948;6.132;2023-05-10T02:58:58;139.75;;;55.95;;
48578;SDS011;34357;51.948;6.132;2023-05-10T03:01:23;128.93;;;54.20;;
48578;SDS011;34357;51.948;6.132;2023-05-10T03:03:49;146.77;;;56.25;;
48578;SDS011;34357;51.948;6.132;2023-05-10T03:06:15;136.93;;;54.35;;
48578;SDS011;34357;51.948;6.132;2023-05-10T03:08:42;133.90;;;55.08;;
48578;SDS011;34357;51.948;6.132;2023-05-10T03:16:43;154.57;;;58.67;;
48578;SDS011;34357;51.948;6.132;2023-05-10T03:19:22;135.10;;;55.88;;
48578;SDS011;34357;51.948;6.132;2023-05-10T03:21:53;133.32;;;56.38;;
48578;SDS011;34357;51.948;6.132;2023-05-10T03:24:21;151.40;;;60.17;;
48578;SDS011;34357;51.948;6.132;2023-05-10T03:26:50;153.70;;;59.97;;
48578;SDS011;34357;51.948;6.132;2023-05-10T03:29:20;156.35;;;62.92;;
48578;SDS011;34357;51.948;6.132;2023-05-10T03:31:48;159.85;;;65.22;;
48578;SDS011;34357;51.948;6.132;2023-05-10T03:34:14;158.07;;;68.00;;
48578;SDS011;34357;51.948;6.132;2023-05-10T03:36:40;153.80;;;66.97;;
48578;SDS011;34357;51.948;6.132;2023-05-10T03:39:06;151.98;;;69.45;;
48578;SDS011;34357;51.948;6.132;2023-05-10T03:41:32;129.18;;;59.58;;
48578;SDS011;34357;51.948;6.132;2023-05-10T03:43:57;152.40;;;68.18;;
48578;SDS011;34357;51.948;6.132;2023-05-10T03:46:23;160.23;;;71.30;;
48578;SDS011;34357;51.948;6.132;2023-05-10T03:48:49;184.13;;;72.60;;
48578;SDS011;34357;51.948;6.132;2023-05-10T03:51:15;163.95;;;71.20;;
48578;SDS011;34357;51.948;6.132;2023-05-10T03:53:41;169.63;;;71.35;;
48578;SDS011;34357;51.948;6.132;2023-05-10T03:56:06;180.35;;;74.07;;
48578;SDS011;34357;51.948;6.132;2023-05-10T03:58:32;166.85;;;72.70;;
48578;SDS011;34357;51.948;6.132;2023-05-10T04:00:58;181.65;;;73.72;;
48578;SDS011;34357;51.948;6.132;2023-05-10T04:03:23;182.60;;;74.40;;
48578;SDS011;34357;51.948;6.132;2023-05-10T04:05:58;165.45;;;66.35;;
48578;SDS011;34357;51.948;6.132;2023-05-10T04:08:26;174.85;;;71.55;;
48578;SDS011;34357;51.948;6.132;2023-05-10T04:10:52;168.35;;;71.00;;
48578;SDS011;34357;51.948;6.132;2023-05-10T04:13:18;167.95;;;70.10;;
48578;SDS011;34357;51.948;6.132;2023-05-10T04:15:44;162.60;;;65.82;;
48578;SDS011;34357;51.948;6.132;2023-05-10T04:18:10;160.77;;;67.38;;
48578;SDS011;34357;51.948;6.132;2023-05-10T04:20:36;139.30;;;59.40;;
48578;SDS011;34357;51.948;6.132;2023-05-10T04:23:02;154.60;;;60.55;;
48578;SDS011;34357;51.948;6.132;2023-05-10T04:25:28;154.25;;;61.33;;
48578;SDS011;34357;51.948;6.132;2023-05-10T04:27:53;162.38;;;65.10;;
48578;SDS011;34357;51.948;6.132;2023-05-10T04:30:19;149.35;;;62.00;;
48578;SDS011;34357;51.948;6.132;2023-05-10T04:32:45;166.27;;;64.35;;
48578;SDS011;34357;51.948;6.132;2023-05-10T04:35:10;165.07;;;66.20;;
48578;SDS011;34357;51.948;6.132;2023-05-10T04:37:36;169.50;;;65.97;;
48578;SDS011;34357;51.948;6.132;2023-05-10T04:40:02;165.30;;;64.80;;
48578;SDS011;34357;51.948;6.132;2023-05-10T04:42:28;168.98;;;65.18;;
48578;SDS011;34357;51.948;6.132;2023-05-10T04:44:54;167.88;;;65.25;;
48578;SDS011;34357;51.948;6.132;2023-05-10T04:47:20;152.85;;;63.78;;
48578;SDS011;34357;51.948;6.132;2023-05-10T04:49:45;154.50;;;63.97;;
48578;SDS011;34357;51.948;6.132;2023-05-10T04:52:11;156.43;;;65.70;;
48578;SDS011;34357;51.948;6.132;2023-05-10T04:54:37;163.50;;;65.53;;
48578;SDS011;34357;51.948;6.132;2023-05-10T04:57:02;155.85;;;64.18;;
48578;SDS011;34357;51.948;6.132;2023-05-10T04:59:28;156.48;;;63.78;;
48578;SDS011;34357;51.948;6.132;2023-05-10T05:01:54;148.50;;;64.38;;
48578;SDS011;34357;51.948;6.132;2023-05-10T05:04:20;162.52;;;66.45;;
48578;SDS011;34357;51.948;6.132;2023-05-10T05:06:47;154.60;;;62.75;;
48578;SDS011;34357;51.948;6.132;2023-05-10T05:09:13;160.25;;;63.30;;
48578;SDS011;34357;51.948;6.132;2023-05-10T05:11:39;124.63;;;56.63;;
48578;SDS011;34357;51.948;6.132;2023-05-10T05:14:05;132.38;;;57.85;;
48578;SDS011;34357;51.948;6.132;2023-05-10T05:16:31;123.82;;;54.20;;
48578;SDS011;34357;51.948;6.132;2023-05-10T05:18:57;129.05;;;56.03;;
48578;SDS011;34357;51.948;6.132;2023-05-10T05:21:22;131.85;;;56.33;;
48578;SDS011;34357;51.948;6.132;2023-05-10T05:23:50;133.88;;;57.97;;
48578;SDS011;34357;51.948;6.132;2023-05-10T05:26:15;127.70;;;57.10;;
48578;SDS011;34357;51.948;6.132;2023-05-10T05:28:41;127.15;;;55.13;;
48578;SDS011;34357;51.948;6.132;2023-05-10T05:31:07;127.70;;;55.03;;
48578;SDS011;34357;51.948;6.132;2023-05-10T05:33:33;124.10;;;55.03;;
48578;SDS011;34357;51.948;6.132;2023-05-10T05:36:03;119.65;;;55.67;;
48578;SDS011;34357;51.948;6.132;2023-05-10T05:38:30;126.88;;;56.65;;
48578;SDS011;34357;51.948;6.132;2023-05-10T05:40:55;130.95;;;57.28;;
48578;SDS011;34357;51.948;6.132;2023-05-10T05:43:21;123.65;;;54.10;;
48578;SDS011;34357;51.948;6.132;2023-05-10T05:45:47;121.00;;;55.03;;
48578;SDS011;34357;51.948;6.132;2023-05-10T05:48:13;117.25;;;54.05;;
48578;SDS011;34357;51.948;6.132;2023-05-10T05:50:39;114.70;;;54.22;;
48578;SDS011;34357;51.948;6.132;2023-05-10T05:53:04;119.30;;;54.05;;
48578;SDS011;34357;51.948;6.132;2023-05-10T05:55:30;119.95;;;54.22;;
48578;SDS011;34357;51.948;6.132;2023-05-10T05:57:57;115.93;;;53.50;;
48578;SDS011;34357;51.948;6.132;2023-05-10T06:00:23;118.28;;;54.13;;
48578;SDS011;34357;51.948;6.132;2023-05-10T06:02:49;117.65;;;54.90;;
48578;SDS011;34357;51.948;6.132;2023-05-10T06:05:14;130.25;;;53.78;;
48578;SDS011;34357;51.948;6.132;2023-05-10T06:07:40;116.53;;;53.40;;
48578;SDS011;34357;51.948;6.132;2023-05-10T06:10:09;133.05;;;55.67;;
48578;SDS011;34357;51.948;6.132;2023-05-10T06:12:35;119.18;;;53.92;;
48578;SDS011;34357;51.948;6.132;2023-05-10T06:15:01;124.22;;;56.00;;
48578;SDS011;34357;51.948;6.132;2023-05-10T06:17:27;126.38;;;52.75;;
48578;SDS011;34357;51.948;6.132;2023-05-10T06:19:53;132.23;;;57.35;;
48578;SDS011;34357;51.948;6.132;2023-05-10T06:22:19;136.50;;;57.38;;
48578;SDS011;34357;51.948;6.132;2023-05-10T06:24:47;140.77;;;59.33;;
48578;SDS011;34357;51.948;6.132;2023-05-10T06:27:13;128.18;;;57.00;;
48578;SDS011;34357;51.948;6.132;2023-05-10T06:29:39;143.07;;;58.88;;
48578;SDS011;34357;51.948;6.132;2023-05-10T06:32:05;135.93;;;59.65;;
48578;SDS011;34357;51.948;6.132;2023-05-10T06:34:31;139.68;;;59.33;;
48578;SDS011;34357;51.948;6.132;2023-05-10T06:36:57;142.73;;;60.95;;
48578;SDS011;34357;51.948;6.132;2023-05-10T06:39:23;145.05;;;60.65;;
48578;SDS011;34357;51.948;6.132;2023-05-10T06:41:48;137.40;;;60.88;;
48578;SDS011;34357;51.948;6.132;2023-05-10T06:44:14;141.60;;;60.38;;
48578;SDS011;34357;51.948;6.132;2023-05-10T06:46:40;135.98;;;61.28;;
48578;SDS011;34357;51.948;6.132;2023-05-10T06:49:06;126.65;;;56.88;;
48578;SDS011;34357;51.948;6.132;2023-05-10T06:51:32;121.90;;;59.25;;
48578;SDS011;34357;51.948;6.132;2023-05-10T06:53:58;115.53;;;55.45;;
48578;SDS011;34357;51.948;6.132;2023-05-10T06:56:24;117.65;;;59.28;;
48578;SDS011;34357;51.948;6.132;2023-05-10T06:58:50;123.75;;;60.58;;
48578;SDS011;34357;51.948;6.132;2023-05-10T07:01:15;115.15;;;59.38;;
48578;SDS011;34357;51.948;6.132;2023-05-10T07:03:41;126.13;;;59.40;;
48578;SDS011;34357;51.948;6.132;2023-05-10T07:06:07;118.50;;;57.80;;
48578;SDS011;34357;51.948;6.132;2023-05-10T07:08:33;108.78;;;55.13;;
48578;SDS011;34357;51.948;6.132;2023-05-10T07:11:00;101.82;;;54.30;;
48578;SDS011;34357;51.948;6.132;2023-05-10T07:13:30;113.97;;;56.00;;
48578;SDS011;34357;51.948;6.132;2023-05-10T07:15:56;103.63;;;54.00;;
48578;SDS011;34357;51.948;6.132;2023-05-10T07:18:23;102.70;;;53.08;;
48578;SDS011;34357;51.948;6.132;2023-05-10T07:20:49;100.85;;;51.88;;
48578;SDS011;34357;51.948;6.132;2023-05-10T07:23:15;88.85;;;48.00;;
48578;SDS011;34357;51.948;6.132;2023-05-10T07:25:44;94.10;;;47.88;;
48578;SDS011;34357;51.948;6.132;2023-05-10T07:28:11;93.88;;;47.95;;
48578;SDS011;34357;51.948;6.132;2023-05-10T07:30:36;88.93;;;44.90;;
48578;SDS011;34357;51.948;6.132;2023-05-10T07:33:02;95.03;;;49.33;;
48578;SDS011;34357;51.948;6.132;2023-05-10T07:35:28;96.18;;;47.58;;
48578;SDS011;34357;51.948;6.132;2023-05-10T07:37:54;100.00;;;46.60;;
48578;SDS011;34357;51.948;6.132;2023-05-10T07:40:19;95.05;;;48.05;;
48578;SDS011;34357;51.948;6.132;2023-05-10T07:42:45;100.55;;;48.47;;
48578;SDS011;34357;51.948;6.132;2023-05-10T07:45:11;96.05;;;47.80;;
48578;SDS011;34357;51.948;6.132;2023-05-10T07:47:36;98.47;;;49.45;;
48578;SDS011;34357;51.948;6.132;2023-05-10T07:50:02;113.38;;;51.50;;
48578;SDS011;34357;51.948;6.132;2023-05-10T07:52:30;107.10;;;50.20;;
48578;SDS011;34357;51.948;6.132;2023-05-10T07:54:55;114.10;;;51.10;;
48578;SDS011;34357;51.948;6.132;2023-05-10T07:57:22;105.30;;;49.75;;
48578;SDS011;34357;51.948;6.132;2023-05-10T07:59:47;106.50;;;52.05;;
48578;SDS011;34357;51.948;6.132;2023-05-10T08:02:13;112.55;;;51.92;;
48578;SDS011;34357;51.948;6.132;2023-05-10T08:04:39;116.88;;;55.60;;
48578;SDS011;34357;51.948;6.132;2023-05-10T08:07:05;111.82;;;53.30;;
48578;SDS011;34357;51.948;6.132;2023-05-10T08:09:30;104.43;;;53.00;;
48578;SDS011;34357;51.948;6.132;2023-05-10T08:11:56;102.35;;;52.10;;
48578;SDS011;34357;51.948;6.132;2023-05-10T08:14:23;99.90;;;47.35;;
48578;SDS011;34357;51.948;6.132;2023-05-10T08:16:49;95.25;;;48.13;;
48578;SDS011;34357;51.948;6.132;2023-05-10T08:19:15;92.45;;;47.55;;
48578;SDS011;34357;51.948;6.132;2023-05-10T08:21:44;95.38;;;46.80;;
48578;SDS011;34357;51.948;6.132;2023-05-10T08:24:10;84.03;;;42.92;;
48578;SDS011;34357;51.948;6.132;2023-05-10T08:26:36;97.50;;;47.60;;
48578;SDS011;34357;51.948;6.132;2023-05-10T08:29:02;90.43;;;45.25;;
48578;SDS011;34357;51.948;6.132;2023-05-10T08:31:27;82.63;;;44.70;;
48578;SDS011;34357;51.948;6.132;2023-05-10T08:33:53;84.15;;;44.97;;
48578;SDS011;34357;51.948;6.132;2023-05-10T08:36:19;87.35;;;46.80;;
48578;SDS011;34357;51.948;6.132;2023-05-10T08:38:47;95.22;;;51.13;;
48578;SDS011;34357;51.948;6.132;2023-05-10T08:41:15;86.80;;;47.70;;
48578;SDS011;34357;51.948;6.132;2023-05-10T08:43:41;84.15;;;45.92;;
48578;SDS011;34357;51.948;6.132;2023-05-10T08:46:11;75.88;;;45.92;;
48578;SDS011;34357;51.948;6.132;2023-05-10T08:48:43;70.95;;;42.03;;
48578;SDS011;34357;51.948;6.132;2023-05-10T08:51:17;73.53;;;44.40;;
48578;SDS011;34357;51.948;6.132;2023-05-10T08:53:45;78.32;;;43.67;;
48578;SDS011;34357;51.948;6.132;2023-05-10T08:56:11;86.25;;;46.00;;
48578;SDS011;34357;51.948;6.132;2023-05-10T08:58:37;72.28;;;41.53;;
48578;SDS011;34357;51.948;6.132;2023-05-10T09:01:03;74.72;;;43.53;;
48578;SDS011;34357;51.948;6.132;2023-05-10T09:03:30;64.40;;;38.88;;
48578;SDS011;34357;51.948;6.132;2023-05-10T09:05:57;63.47;;;38.80;;
48578;SDS011;34357;51.948;6.132;2023-05-10T09:08:23;63.50;;;40.47;;
48578;SDS011;34357;51.948;6.132;2023-05-10T09:10:50;66.90;;;39.65;;
48578;SDS011;34357;51.948;6.132;2023-05-10T09:13:17;56.58;;;35.28;;
48578;SDS011;34357;51.948;6.132;2023-05-10T09:15:44;59.42;;;36.50;;
48578;SDS011;34357;51.948;6.132;2023-05-10T09:18:10;57.42;;;34.65;;
48578;SDS011;34357;51.948;6.132;2023-05-10T09:20:36;45.65;;;31.27;;
48578;SDS011;34357;51.948;6.132;2023-05-10T09:23:02;53.08;;;32.92;;
48578;SDS011;34357;51.948;6.132;2023-05-10T09:25:28;51.65;;;33.30;;
48578;SDS011;34357;51.948;6.132;2023-05-10T09:27:54;53.42;;;33.78;;
48578;SDS011;34357;51.948;6.132;2023-05-10T09:30:27;59.78;;;35.28;;
48578;SDS011;34357;51.948;6.132;2023-05-10T09:32:55;61.08;;;35.33;;
48578;SDS011;34357;51.948;6.132;2023-05-10T09:35:22;56.58;;;33.75;;
48578;SDS011;34357;51.948;6.132;2023-05-10T09:37:50;50.50;;;30.88;;
48578;SDS011;34357;51.948;6.132;2023-05-10T09:40:19;45.88;;;28.40;;
48578;SDS011;34357;51.948;6.132;2023-05-10T09:42:59;41.77;;;26.33;;
48578;SDS011;34357;51.948;6.132;2023-05-10T09:45:32;35.55;;;22.58;;
48578;SDS011;34357;51.948;6.132;2023-05-10T09:47:59;33.85;;;22.27;;
48578;SDS011;34357;51.948;6.132;2023-05-10T09:50:28;30.83;;;20.17;;
48578;SDS011;34357;51.948;6.132;2023-05-10T09:52:59;27.20;;;19.00;;
48578;SDS011;34357;51.948;6.132;2023-05-10T09:55:27;29.65;;;18.60;;
48578;SDS011;34357;51.948;6.132;2023-05-10T09:58:04;25.20;;;17.55;;
48578;SDS011;34357;51.948;6.132;2023-05-10T10:00:38;25.98;;;18.05;;
48578;SDS011;34357;51.948;6.132;2023-05-10T10:03:05;22.93;;;16.57;;
48578;SDS011;34357;51.948;6.132;2023-05-10T10:05:36;25.42;;;17.10;;
48578;SDS011;34357;51.948;6.132;2023-05-10T10:08:06;24.70;;;16.45;;
48578;SDS011;34357;51.948;6.132;2023-05-10T10:10:32;23.38;;;16.60;;
48578;SDS011;34357;51.948;6.132;2023-05-10T10:12:58;24.80;;;16.85;;
48578;SDS011;34357;51.948;6.132;2023-05-10T10:15:25;25.20;;;16.02;;
48578;SDS011;34357;51.948;6.132;2023-05-10T10:17:51;23.58;;;15.40;;
48578;SDS011;34357;51.948;6.132;2023-05-10T10:20:18;19.08;;;14.30;;
48578;SDS011;34357;51.948;6.132;2023-05-10T10:22:45;16.10;;;10.73;;
48578;SDS011;34357;51.948;6.132;2023-05-10T10:25:12;15.20;;;11.35;;
48578;SDS011;34357;51.948;6.132;2023-05-10T10:35:36;17.05;;;9.77;;
48578;SDS011;34357;51.948;6.132;2023-05-10T10:38:02;11.85;;;9.15;;
48578;SDS011;34357;51.948;6.132;2023-05-10T10:42:57;12.82;;;7.82;;
48578;SDS011;34357;51.948;6.132;2023-05-10T10:45:24;10.02;;;7.93;;
48578;SDS011;34357;51.948;6.132;2023-05-10T10:48:18;9.30;;;7.13;;
48578;SDS011;34357;51.948;6.132;2023-05-10T10:50:46;9.55;;;7.00;;
48578;SDS011;34357;51.948;6.132;2023-05-10T10:53:12;10.75;;;7.47;;
48578;SDS011;34357;51.948;6.132;2023-05-10T10:55:47;10.32;;;7.97;;
48578;SDS011;34357;51.948;6.132;2023-05-10T10:58:29;12.52;;;8.43;;
48578;SDS011;34357;51.948;6.132;2023-05-10T11:03:39;10.15;;;7.00;;
48578;SDS011;34357;51.948;6.132;2023-05-10T11:06:06;11.32;;;7.40;;
48578;SDS011;34357;51.948;6.132;2023-05-10T11:08:33;11.85;;;7.93;;
48578;SDS011;34357;51.948;6.132;2023-05-10T11:11:06;15.32;;;10.75;;
48578;SDS011;34357;51.948;6.132;2023-05-10T11:13:39;17.73;;;12.00;;
48578;SDS011;34357;51.948;6.132;2023-05-10T11:16:17;23.27;;;12.38;;
48578;SDS011;34357;51.948;6.132;2023-05-10T11:19:04;14.75;;;11.35;;
48578;SDS011;34357;51.948;6.132;2023-05-10T11:21:45;17.95;;;11.60;;
48578;SDS011;34357;51.948;6.132;2023-05-10T11:24:16;17.85;;;11.90;;
48578;SDS011;34357;51.948;6.132;2023-05-10T11:26:44;15.50;;;11.63;;
48578;SDS011;34357;51.948;6.132;2023-05-10T11:29:10;16.20;;;11.82;;
48578;SDS011;34357;51.948;6.132;2023-05-10T11:31:47;17.13;;;10.93;;
48578;SDS011;34357;51.948;6.132;2023-05-10T11:36:56;20.52;;;11.55;;
48578;SDS011;34357;51.948;6.132;2023-05-10T11:39:29;15.25;;;11.50;;
48578;SDS011;34357;51.948;6.132;2023-05-10T11:41:57;15.70;;;11.82;;
48578;SDS011;34357;51.948;6.132;2023-05-10T11:44:23;15.93;;;11.60;;
48578;SDS011;34357;51.948;6.132;2023-05-10T11:46:53;13.18;;;9.75;;
48578;SDS011;34357;51.948;6.132;2023-05-10T11:49:19;13.88;;;9.38;;
48578;SDS011;34357;51.948;6.132;2023-05-10T11:51:48;13.38;;;9.75;;
48578;SDS011;34357;51.948;6.132;2023-05-10T11:54:13;14.85;;;10.77;;
48578;SDS011;34357;51.948;6.132;2023-05-10T11:56:40;16.30;;;10.75;;
48578;SDS011;34357;51.948;6.132;2023-05-10T11:59:06;12.77;;;9.75;;
48578;SDS011;34357;51.948;6.132;2023-05-10T12:01:33;13.07;;;9.10;;
48578;SDS011;34357;51.948;6.132;2023-05-10T12:03:59;12.07;;;9.10;;
48578;SDS011;34357;51.948;6.132;2023-05-10T12:06:26;12.10;;;9.20;;
48578;SDS011;34357;51.948;6.132;2023-05-10T12:08:54;12.90;;;8.68;;
48578;SDS011;34357;51.948;6.132;2023-05-10T12:11:20;14.93;;;9.90;;
48578;SDS011;34357;51.948;6.132;2023-05-10T12:13:50;13.98;;;9.57;;
48578;SDS011;34357;51.948;6.132;2023-05-10T12:16:17;14.63;;;9.80;;
48578;SDS011;34357;51.948;6.132;2023-05-10T12:18:44;13.02;;;9.18;;
48578;SDS011;34357;51.948;6.132;2023-05-10T12:21:13;13.65;;;9.95;;
48578;SDS011;34357;51.948;6.132;2023-05-10T12:23:40;13.98;;;9.60;;
48578;SDS011;34357;51.948;6.132;2023-05-10T12:26:08;12.55;;;9.15;;
48578;SDS011;34357;51.948;6.132;2023-05-10T12:31:06;14.55;;;10.27;;
48578;SDS011;34357;51.948;6.132;2023-05-10T12:33:39;16.98;;;11.10;;
48578;SDS011;34357;51.948;6.132;2023-05-10T12:36:08;13.95;;;10.50;;
48578;SDS011;34357;51.948;6.132;2023-05-10T12:38:35;13.52;;;10.18;;
48578;SDS011;34357;51.948;6.132;2023-05-10T12:41:03;13.93;;;10.77;;
48578;SDS011;34357;51.948;6.132;2023-05-10T12:43:31;12.35;;;10.40;;
48578;SDS011;34357;51.948;6.132;2023-05-10T12:45:57;14.70;;;10.77;;
48578;SDS011;34357;51.948;6.132;2023-05-10T12:48:23;12.60;;;9.40;;
48578;SDS011;34357;51.948;6.132;2023-05-10T12:50:50;12.32;;;9.35;;
48578;SDS011;34357;51.948;6.132;2023-05-10T12:53:15;11.63;;;9.65;;
48578;SDS011;34357;51.948;6.132;2023-05-10T12:55:42;13.07;;;9.77;;
48578;SDS011;34357;51.948;6.132;2023-05-10T12:58:08;16.08;;;9.30;;
48578;SDS011;34357;51.948;6.132;2023-05-10T13:00:34;11.80;;;9.05;;
48578;SDS011;34357;51.948;6.132;2023-05-10T13:03:00;14.95;;;9.75;;
48578;SDS011;34357;51.948;6.132;2023-05-10T13:05:25;12.32;;;8.77;;
48578;SDS011;34357;51.948;6.132;2023-05-10T13:07:51;11.07;;;8.10;;
48578;SDS011;34357;51.948;6.132;2023-05-10T13:10:19;11.38;;;8.75;;
48578;SDS011;34357;51.948;6.132;2023-05-10T13:12:45;10.68;;;8.50;;
48578;SDS011;34357;51.948;6.132;2023-05-10T13:15:11;13.63;;;8.95;;
48578;SDS011;34357;51.948;6.132;2023-05-10T13:17:37;12.18;;;7.50;;
48578;SDS011;34357;51.948;6.132;2023-05-10T13:20:04;10.13;;;7.97;;
48578;SDS011;34357;51.948;6.132;2023-05-10T13:22:30;9.80;;;7.55;;
48578;SDS011;34357;51.948;6.132;2023-05-10T13:24:56;9.75;;;7.90;;
48578;SDS011;34357;51.948;6.132;2023-05-10T13:27:22;12.52;;;7.30;;
48578;SDS011;34357;51.948;6.132;2023-05-10T13:29:48;10.90;;;7.55;;
48578;SDS011;34357;51.948;6.132;2023-05-10T13:32:13;12.20;;;7.32;;
48578;SDS011;34357;51.948;6.132;2023-05-10T13:34:39;13.70;;;8.30;;
48578;SDS011;34357;51.948;6.132;2023-05-10T13:37:05;9.43;;;7.45;;
48578;SDS011;34357;51.948;6.132;2023-05-10T13:39:31;10.77;;;7.88;;
48578;SDS011;34357;51.948;6.132;2023-05-10T13:41:59;12.02;;;8.45;;
48578;SDS011;34357;51.948;6.132;2023-05-10T13:44:25;13.95;;;8.02;;
48578;SDS011;34357;51.948;6.132;2023-05-10T13:46:51;9.30;;;7.95;;
48578;SDS011;34357;51.948;6.132;2023-05-10T13:49:17;11.88;;;8.45;;
48578;SDS011;34357;51.948;6.132;2023-05-10T13:51:43;10.02;;;7.88;;
48578;SDS011;34357;51.948;6.132;2023-05-10T13:54:08;13.85;;;9.88;;
48578;SDS011;34357;51.948;6.132;2023-05-10T13:56:34;12.82;;;8.20;;
48578;SDS011;34357;51.948;6.132;2023-05-10T13:59:00;13.70;;;8.90;;
48578;SDS011;34357;51.948;6.132;2023-05-10T14:01:26;11.23;;;8.25;;
48578;SDS011;34357;51.948;6.132;2023-05-10T14:03:52;15.50;;;9.00;;
48578;SDS011;34357;51.948;6.132;2023-05-10T14:06:17;13.15;;;9.15;;
48578;SDS011;34357;51.948;6.132;2023-05-10T14:08:43;14.13;;;9.10;;
48578;SDS011;34357;51.948;6.132;2023-05-10T14:11:09;12.10;;;8.88;;
48578;SDS011;34357;51.948;6.132;2023-05-10T14:13:34;11.60;;;8.40;;
48578;SDS011;34357;51.948;6.132;2023-05-10T14:16:00;12.23;;;8.32;;
48578;SDS011;34357;51.948;6.132;2023-05-10T14:18:26;14.07;;;8.57;;
48578;SDS011;34357;51.948;6.132;2023-05-10T14:20:52;11.23;;;7.65;;
48578;SDS011;34357;51.948;6.132;2023-05-10T14:23:18;13.63;;;8.98;;
48578;SDS011;34357;51.948;6.132;2023-05-10T14:25:52;15.27;;;9.88;;
48578;SDS011;34357;51.948;6.132;2023-05-10T14:28:18;15.30;;;10.13;;
48578;SDS011;34357;51.948;6.132;2023-05-10T14:30:45;15.90;;;10.93;;
48578;SDS011;34357;51.948;6.132;2023-05-10T14:33:11;19.45;;;13.23;;
48578;SDS011;34357;51.948;6.132;2023-05-10T14:35:37;17.02;;;12.82;;
48578;SDS011;34357;51.948;6.132;2023-05-10T14:38:03;15.02;;;12.18;;
48578;SDS011;34357;51.948;6.132;2023-05-10T14:40:29;13.30;;;11.35;;
48578;SDS011;34357;51.948;6.132;2023-05-10T14:42:55;17.88;;;12.70;;
48578;SDS011;34357;51.948;6.132;2023-05-10T14:45:21;17.05;;;12.77;;
48578;SDS011;34357;51.948;6.132;2023-05-10T14:47:48;12.80;;;10.38;;
48578;SDS011;34357;51.948;6.132;2023-05-10T14:50:14;13.73;;;10.38;;
48578;SDS011;34357;51.948;6.132;2023-05-10T14:52:43;12.00;;;9.55;;
48578;SDS011;34357;51.948;6.132;2023-05-10T14:55:09;12.77;;;9.35;;
48578;SDS011;34357;51.948;6.132;2023-05-10T14:57:35;13.73;;;9.57;;
48578;SDS011;34357;51.948;6.132;2023-05-10T15:00:02;11.60;;;9.65;;
48578;SDS011;34357;51.948;6.132;2023-05-10T15:02:28;14.27;;;10.60;;